sensor_id;sensor_type;location;lat;lon;timestamp;pressure;altitude;pressure_sealevel;temperature;humidity
48530;BME280;34927;37.302;-121.982;2022-08-21T00:00:42;100115.0;;;29.29;30.89
48530;BME280;34927;37.302;-121.982;2022-08-21T00:01:47;100113.0;;;29.26;31.07
48530;BME280;34927;37.302;-121.982;2022-08-21T00:02:54;100115.0;;;29.31;30.96
48530;BME280;34927;37.302;-121.982;2022-08-21T00:03:57;100113.0;;;29.25;30.79
48530;BME280;34927;37.302;-121.982;2022-08-21T00:05:01;100115.0;;;29.33;30.73
48530;BME280;34927;37.302;-121.982;2022-08-21T00:06:07;100114.0;;;29.21;30.96
48530;BME280;34927;37.302;-121.982;2022-08-21T00:07:11;100118.0;;;29.25;31.25
48530;BME280;34927;37.302;-121.982;2022-08-21T00:08:17;100118.0;;;29.31;30.98
48530;BME280;34927;37.302;-121.982;2022-08-21T00:09:21;100118.0;;;29.33;30.68
48530;BME280;34927;37.302;-121.982;2022-08-21T00:10:27;100120.0;;;29.35;31.09
48530;BME280;34927;37.302;-121.982;2022-08-21T00:11:32;100118.0;;;29.35;30.62
48530;BME280;34927;37.302;-121.982;2022-08-21T00:12:37;100118.0;;;29.27;30.82
48530;BME280;34927;37.302;-121.982;2022-08-21T00:13:41;100117.0;;;29.46;30.79
48530;BME280;34927;37.302;-121.982;2022-08-21T00:14:47;100116.0;;;29.39;31.08
48530;BME280;34927;37.302;-121.982;2022-08-21T00:15:52;100118.0;;;29.35;30.79
48530;BME280;34927;37.302;-121.982;2022-08-21T00:16:57;100117.0;;;29.26;30.89
48530;BME280;34927;37.302;-121.982;2022-08-21T00:18:03;100118.0;;;29.31;30.87
48530;BME280;34927;37.302;-121.982;2022-08-21T00:19:07;100117.0;;;29.31;30.82
48530;BME280;34927;37.302;-121.982;2022-08-21T00:20:14;100119.0;;;29.20;30.91
48530;BME280;34927;37.302;-121.982;2022-08-21T00:21:17;100120.0;;;29.24;31.01
48530;BME280;34927;37.302;-121.982;2022-08-21T00:22:22;100121.0;;;29.16;31.20
48530;BME280;34927;37.302;-121.982;2022-08-21T00:23:27;100119.0;;;29.29;31.01
48530;BME280;34927;37.302;-121.982;2022-08-21T00:24:32;100117.0;;;29.22;30.88
48530;BME280;34927;37.302;-121.982;2022-08-21T00:25:37;100120.0;;;29.26;30.76
48530;BME280;34927;37.302;-121.982;2022-08-21T00:26:41;100119.0;;;29.16;30.89
48530;BME280;34927;37.302;-121.982;2022-08-21T00:27:46;100121.0;;;29.12;31.04
48530;BME280;34927;37.302;-121.982;2022-08-21T00:28:51;100121.0;;;29.10;30.98
48530;BME280;34927;37.302;-121.982;2022-08-21T00:29:57;100122.0;;;29.10;31.07
48530;BME280;34927;37.302;-121.982;2022-08-21T00:31:02;100122.0;;;29.12;31.01
48530;BME280;34927;37.302;-121.982;2022-08-21T00:32:07;100122.0;;;29.19;30.65
48530;BME280;34927;37.302;-121.982;2022-08-21T00:33:12;100121.0;;;29.22;30.56
48530;BME280;34927;37.302;-121.982;2022-08-21T00:34:16;100123.0;;;29.19;30.69
48530;BME280;34927;37.302;-121.982;2022-08-21T00:35:23;100122.0;;;29.19;30.69
48530;BME280;34927;37.302;-121.982;2022-08-21T00:36:27;100118.0;;;29.27;30.43
48530;BME280;34927;37.302;-121.982;2022-08-21T00:37:31;100119.0;;;29.09;30.69
48530;BME280;34927;37.302;-121.982;2022-08-21T00:38:36;100118.0;;;29.16;30.48
48530;BME280;34927;37.302;-121.982;2022-08-21T00:39:41;100119.0;;;29.21;30.64
48530;BME280;34927;37.302;-121.982;2022-08-21T00:40:49;100119.0;;;29.20;30.44
48530;BME280;34927;37.302;-121.982;2022-08-21T00:41:51;100121.0;;;29.20;30.56
48530;BME280;34927;37.302;-121.982;2022-08-21T00:42:57;100121.0;;;29.14;30.46
48530;BME280;34927;37.302;-121.982;2022-08-21T00:44:02;100121.0;;;29.16;30.59
48530;BME280;34927;37.302;-121.982;2022-08-21T00:45:08;100121.0;;;29.22;30.27
48530;BME280;34927;37.302;-121.982;2022-08-21T00:46:11;100120.0;;;29.19;30.77
48530;BME280;34927;37.302;-121.982;2022-08-21T00:47:16;100124.0;;;29.18;30.52
48530;BME280;34927;37.302;-121.982;2022-08-21T00:48:22;100126.0;;;29.20;30.50
48530;BME280;34927;37.302;-121.982;2022-08-21T00:49:26;100127.0;;;29.14;30.42
48530;BME280;34927;37.302;-121.982;2022-08-21T00:50:34;100132.0;;;29.08;30.51
48530;BME280;34927;37.302;-121.982;2022-08-21T00:51:39;100131.0;;;29.02;30.48
48530;BME280;34927;37.302;-121.982;2022-08-21T00:52:47;100133.0;;;29.12;30.38
48530;BME280;34927;37.302;-121.982;2022-08-21T00:53:59;100131.0;;;29.15;30.36
48530;BME280;34927;37.302;-121.982;2022-08-21T00:55:09;100132.0;;;29.09;30.19
48530;BME280;34927;37.302;-121.982;2022-08-21T00:56:13;100133.0;;;29.13;30.40
48530;BME280;34927;37.302;-121.982;2022-08-21T00:57:29;100132.0;;;29.15;30.45
48530;BME280;34927;37.302;-121.982;2022-08-21T00:58:31;100133.0;;;29.18;31.58
48530;BME280;34927;37.302;-121.982;2022-08-21T00:59:38;100140.0;;;28.94;31.62
48530;BME280;34927;37.302;-121.982;2022-08-21T01:00:44;100140.0;;;29.07;31.69
48530;BME280;34927;37.302;-121.982;2022-08-21T01:01:47;100141.0;;;28.89;31.99
48530;BME280;34927;37.302;-121.982;2022-08-21T01:02:52;100142.0;;;29.14;31.90
48530;BME280;34927;37.302;-121.982;2022-08-21T01:03:57;100141.0;;;29.33;31.90
48530;BME280;34927;37.302;-121.982;2022-08-21T01:05:02;100142.0;;;29.44;31.95
48530;BME280;34927;37.302;-121.982;2022-08-21T01:06:07;100144.0;;;29.50;31.88
48530;BME280;34927;37.302;-121.982;2022-08-21T01:07:12;100144.0;;;29.63;31.89
48530;BME280;34927;37.302;-121.982;2022-08-21T01:08:17;100144.0;;;29.73;31.79
48530;BME280;34927;37.302;-121.982;2022-08-21T01:09:21;100143.0;;;29.94;31.61
48530;BME280;34927;37.302;-121.982;2022-08-21T01:10:27;100142.0;;;29.98;31.27
48530;BME280;34927;37.302;-121.982;2022-08-21T01:11:31;100147.0;;;30.12;31.30
48530;BME280;34927;37.302;-121.982;2022-08-21T01:12:36;100147.0;;;30.10;31.40
48530;BME280;34927;37.302;-121.982;2022-08-21T01:13:42;100147.0;;;30.11;31.47
48530;BME280;34927;37.302;-121.982;2022-08-21T01:14:46;100147.0;;;30.21;31.31
48530;BME280;34927;37.302;-121.982;2022-08-21T01:15:54;100143.0;;;30.29;31.41
48530;BME280;34927;37.302;-121.982;2022-08-21T01:16:58;100144.0;;;30.24;31.51
48530;BME280;34927;37.302;-121.982;2022-08-21T01:18:03;100147.0;;;30.21;31.84
48530;BME280;34927;37.302;-121.982;2022-08-21T01:19:07;100146.0;;;30.21;31.78
48530;BME280;34927;37.302;-121.982;2022-08-21T01:20:12;100148.0;;;30.25;31.70
48530;BME280;34927;37.302;-121.982;2022-08-21T01:21:19;100148.0;;;30.24;31.75
48530;BME280;34927;37.302;-121.982;2022-08-21T01:22:21;100147.0;;;30.28;31.68
48530;BME280;34927;37.302;-121.982;2022-08-21T01:23:27;100147.0;;;30.28;31.78
48530;BME280;34927;37.302;-121.982;2022-08-21T01:24:32;100148.0;;;30.28;31.82
48530;BME280;34927;37.302;-121.982;2022-08-21T01:25:36;100148.0;;;30.34;31.76
48530;BME280;34927;37.302;-121.982;2022-08-21T01:26:43;100148.0;;;30.33;31.76
48530;BME280;34927;37.302;-121.982;2022-08-21T01:27:47;100148.0;;;30.34;31.79
48530;BME280;34927;37.302;-121.982;2022-08-21T01:28:57;100149.0;;;30.31;31.86
48530;BME280;34927;37.302;-121.982;2022-08-21T01:30:09;100149.0;;;30.34;31.92
48530;BME280;34927;37.302;-121.982;2022-08-21T01:31:19;100150.0;;;30.35;31.95
48530;BME280;34927;37.302;-121.982;2022-08-21T01:32:27;100148.0;;;30.29;32.01
48530;BME280;34927;37.302;-121.982;2022-08-21T01:33:32;100149.0;;;30.27;32.09
48530;BME280;34927;37.302;-121.982;2022-08-21T01:34:38;100152.0;;;30.27;32.12
48530;BME280;34927;37.302;-121.982;2022-08-21T01:35:41;100153.0;;;30.31;32.17
48530;BME280;34927;37.302;-121.982;2022-08-21T01:36:47;100155.0;;;30.28;32.19
48530;BME280;34927;37.302;-121.982;2022-08-21T01:37:52;100155.0;;;30.25;32.35
48530;BME280;34927;37.302;-121.982;2022-08-21T01:38:57;100157.0;;;30.21;32.42
48530;BME280;34927;37.302;-121.982;2022-08-21T01:40:02;100155.0;;;30.26;32.39
48530;BME280;34927;37.302;-121.982;2022-08-21T01:41:07;100156.0;;;30.23;32.49
48530;BME280;34927;37.302;-121.982;2022-08-21T01:42:12;100159.0;;;30.29;32.49
48530;BME280;34927;37.302;-121.982;2022-08-21T01:43:16;100157.0;;;30.22;32.62
48530;BME280;34927;37.302;-121.982;2022-08-21T01:44:22;100157.0;;;30.22;32.62
48530;BME280;34927;37.302;-121.982;2022-08-21T01:45:27;100160.0;;;30.23;32.75
48530;BME280;34927;37.302;-121.982;2022-08-21T01:46:31;100160.0;;;30.23;32.64
48530;BME280;34927;37.302;-121.982;2022-08-21T01:47:37;100160.0;;;30.24;32.66
48530;BME280;34927;37.302;-121.982;2022-08-21T01:48:42;100160.0;;;30.24;32.70
48530;BME280;34927;37.302;-121.982;2022-08-21T01:49:46;100162.0;;;30.27;32.78
48530;BME280;34927;37.302;-121.982;2022-08-21T01:50:51;100164.0;;;30.23;32.89
48530;BME280;34927;37.302;-121.982;2022-08-21T01:51:57;100163.0;;;30.23;32.93
48530;BME280;34927;37.302;-121.982;2022-08-21T01:53:01;100163.0;;;30.21;32.98
48530;BME280;34927;37.302;-121.982;2022-08-21T01:54:06;100164.0;;;30.23;33.07
48530;BME280;34927;37.302;-121.982;2022-08-21T01:55:13;100166.0;;;30.26;32.91
48530;BME280;34927;37.302;-121.982;2022-08-21T01:56:18;100168.0;;;30.30;32.86
48530;BME280;34927;37.302;-121.982;2022-08-21T01:57:23;100167.0;;;30.26;33.05
48530;BME280;34927;37.302;-121.982;2022-08-21T01:58:27;100168.0;;;30.25;33.06
48530;BME280;34927;37.302;-121.982;2022-08-21T01:59:32;100167.0;;;30.27;33.05
48530;BME280;34927;37.302;-121.982;2022-08-21T02:00:37;100168.0;;;30.25;33.21
48530;BME280;34927;37.302;-121.982;2022-08-21T02:01:42;100166.0;;;30.19;33.29
48530;BME280;34927;37.302;-121.982;2022-08-21T02:02:47;100167.0;;;30.24;33.30
48530;BME280;34927;37.302;-121.982;2022-08-21T02:03:51;100169.0;;;30.19;33.32
48530;BME280;34927;37.302;-121.982;2022-08-21T02:04:56;100171.0;;;30.18;33.41
48530;BME280;34927;37.302;-121.982;2022-08-21T02:06:02;100173.0;;;30.19;33.46
48530;BME280;34927;37.302;-121.982;2022-08-21T02:07:07;100173.0;;;30.18;33.51
48530;BME280;34927;37.302;-121.982;2022-08-21T02:08:12;100174.0;;;30.16;33.60
48530;BME280;34927;37.302;-121.982;2022-08-21T02:09:17;100176.0;;;30.14;33.66
48530;BME280;34927;37.302;-121.982;2022-08-21T02:10:25;100177.0;;;30.15;33.64
48530;BME280;34927;37.302;-121.982;2022-08-21T02:11:32;100176.0;;;30.15;33.70
48530;BME280;34927;37.302;-121.982;2022-08-21T02:12:37;100176.0;;;30.16;33.71
48530;BME280;34927;37.302;-121.982;2022-08-21T02:13:42;100176.0;;;30.12;33.71
48530;BME280;34927;37.302;-121.982;2022-08-21T02:14:47;100176.0;;;30.15;33.71
48530;BME280;34927;37.302;-121.982;2022-08-21T02:15:51;100174.0;;;30.16;33.73
48530;BME280;34927;37.302;-121.982;2022-08-21T02:16:56;100175.0;;;30.16;33.75
48530;BME280;34927;37.302;-121.982;2022-08-21T02:18:02;100177.0;;;30.16;33.78
48530;BME280;34927;37.302;-121.982;2022-08-21T02:19:07;100180.0;;;30.17;33.84
48530;BME280;34927;37.302;-121.982;2022-08-21T02:20:17;100178.0;;;30.20;33.81
48530;BME280;34927;37.302;-121.982;2022-08-21T02:21:21;100182.0;;;30.21;33.82
48530;BME280;34927;37.302;-121.982;2022-08-21T02:22:26;100182.0;;;30.18;33.84
48530;BME280;34927;37.302;-121.982;2022-08-21T02:23:32;100183.0;;;30.19;33.91
48530;BME280;34927;37.302;-121.982;2022-08-21T02:24:37;100185.0;;;30.17;33.94
48530;BME280;34927;37.302;-121.982;2022-08-21T02:25:41;100187.0;;;30.17;33.96
48530;BME280;34927;37.302;-121.982;2022-08-21T02:26:46;100185.0;;;30.20;33.99
48530;BME280;34927;37.302;-121.982;2022-08-21T02:27:53;100185.0;;;30.16;33.99
48530;BME280;34927;37.302;-121.982;2022-08-21T02:28:57;100184.0;;;30.15;34.05
48530;BME280;34927;37.302;-121.982;2022-08-21T02:30:02;100186.0;;;30.19;34.08
48530;BME280;34927;37.302;-121.982;2022-08-21T02:31:06;100186.0;;;30.11;34.15
48530;BME280;34927;37.302;-121.982;2022-08-21T02:32:13;100188.0;;;30.14;34.19
48530;BME280;34927;37.302;-121.982;2022-08-21T02:33:18;100189.0;;;30.14;34.24
48530;BME280;34927;37.302;-121.982;2022-08-21T02:34:21;100191.0;;;30.10;34.26
48530;BME280;34927;37.302;-121.982;2022-08-21T02:35:28;100193.0;;;30.09;34.28
48530;BME280;34927;37.302;-121.982;2022-08-21T02:36:32;100194.0;;;30.06;34.37
48530;BME280;34927;37.302;-121.982;2022-08-21T02:37:44;100199.0;;;30.03;34.43
48530;BME280;34927;37.302;-121.982;2022-08-21T02:38:46;100198.0;;;30.03;34.45
48530;BME280;34927;37.302;-121.982;2022-08-21T02:39:52;100199.0;;;29.98;34.61
48530;BME280;34927;37.302;-121.982;2022-08-21T02:40:58;100199.0;;;29.96;34.65
48530;BME280;34927;37.302;-121.982;2022-08-21T02:42:01;100201.0;;;30.00;34.59
48530;BME280;34927;37.302;-121.982;2022-08-21T02:43:08;100203.0;;;30.00;34.61
48530;BME280;34927;37.302;-121.982;2022-08-21T02:44:11;100202.0;;;29.93;34.86
48530;BME280;34927;37.302;-121.982;2022-08-21T02:45:17;100200.0;;;29.94;34.74
48530;BME280;34927;37.302;-121.982;2022-08-21T02:46:21;100202.0;;;29.95;34.73
48530;BME280;34927;37.302;-121.982;2022-08-21T02:47:26;100202.0;;;30.03;34.66
48530;BME280;34927;37.302;-121.982;2022-08-21T02:48:33;100202.0;;;29.73;34.55
48530;BME280;34927;37.302;-121.982;2022-08-21T02:49:37;100203.0;;;29.76;34.26
48530;BME280;34927;37.302;-121.982;2022-08-21T02:50:44;100202.0;;;29.69;34.07
48530;BME280;34927;37.302;-121.982;2022-08-21T02:51:46;100205.0;;;29.54;34.33
48530;BME280;34927;37.302;-121.982;2022-08-21T02:52:51;100204.0;;;29.55;34.12
48530;BME280;34927;37.302;-121.982;2022-08-21T02:53:56;100208.0;;;29.52;34.22
48530;BME280;34927;37.302;-121.982;2022-08-21T02:55:01;100208.0;;;29.60;34.14
48530;BME280;34927;37.302;-121.982;2022-08-21T02:56:09;100208.0;;;29.49;34.33
48530;BME280;34927;37.302;-121.982;2022-08-21T02:57:11;100209.0;;;29.32;34.49
48530;BME280;34927;37.302;-121.982;2022-08-21T02:58:20;100208.0;;;29.37;34.45
48530;BME280;34927;37.302;-121.982;2022-08-21T02:59:26;100207.0;;;29.39;34.42
48530;BME280;34927;37.302;-121.982;2022-08-21T03:00:32;100210.0;;;29.37;34.48
48530;BME280;34927;37.302;-121.982;2022-08-21T03:01:36;100210.0;;;29.25;34.58
48530;BME280;34927;37.302;-121.982;2022-08-21T03:02:42;100211.0;;;29.22;34.84
48530;BME280;34927;37.302;-121.982;2022-08-21T03:03:47;100212.0;;;29.31;34.60
48530;BME280;34927;37.302;-121.982;2022-08-21T03:04:51;100215.0;;;29.36;34.54
48530;BME280;34927;37.302;-121.982;2022-08-21T03:05:57;100217.0;;;29.32;34.54
48530;BME280;34927;37.302;-121.982;2022-08-21T03:07:01;100217.0;;;29.37;34.53
48530;BME280;34927;37.302;-121.982;2022-08-21T03:08:08;100216.0;;;29.34;34.69
48530;BME280;34927;37.302;-121.982;2022-08-21T03:09:12;100212.0;;;29.06;35.30
48530;BME280;34927;37.302;-121.982;2022-08-21T03:10:17;100213.0;;;28.76;35.72
48530;BME280;34927;37.302;-121.982;2022-08-21T03:11:22;100216.0;;;28.60;36.08
48530;BME280;34927;37.302;-121.982;2022-08-21T03:12:27;100217.0;;;28.78;35.80
48530;BME280;34927;37.302;-121.982;2022-08-21T03:13:31;100218.0;;;28.89;35.62
48530;BME280;34927;37.302;-121.982;2022-08-21T03:14:36;100221.0;;;28.94;35.59
48530;BME280;34927;37.302;-121.982;2022-08-21T03:15:42;100218.0;;;28.84;35.95
48530;BME280;34927;37.302;-121.982;2022-08-21T03:16:46;100220.0;;;28.76;36.45
48530;BME280;34927;37.302;-121.982;2022-08-21T03:17:52;100220.0;;;28.77;36.55
48530;BME280;34927;37.302;-121.982;2022-08-21T03:18:56;100220.0;;;28.65;36.83
48530;BME280;34927;37.302;-121.982;2022-08-21T03:20:02;100225.0;;;28.56;37.23
48530;BME280;34927;37.302;-121.982;2022-08-21T03:21:07;100224.0;;;28.58;37.07
48530;BME280;34927;37.302;-121.982;2022-08-21T03:22:11;100225.0;;;28.58;37.07
48530;BME280;34927;37.302;-121.982;2022-08-21T03:23:17;100229.0;;;28.53;37.11
48530;BME280;34927;37.302;-121.982;2022-08-21T03:24:21;100229.0;;;28.40;37.49
48530;BME280;34927;37.302;-121.982;2022-08-21T03:25:27;100230.0;;;28.25;37.90
48530;BME280;34927;37.302;-121.982;2022-08-21T03:26:32;100232.0;;;28.36;37.74
48530;BME280;34927;37.302;-121.982;2022-08-21T03:27:37;100233.0;;;28.37;38.00
48530;BME280;34927;37.302;-121.982;2022-08-21T03:28:41;100237.0;;;28.51;37.92
48530;BME280;34927;37.302;-121.982;2022-08-21T03:29:46;100240.0;;;28.22;38.97
48530;BME280;34927;37.302;-121.982;2022-08-21T03:30:52;100240.0;;;28.35;38.82
48530;BME280;34927;37.302;-121.982;2022-08-21T03:31:56;100244.0;;;28.43;38.65
48530;BME280;34927;37.302;-121.982;2022-08-21T03:33:02;100245.0;;;28.36;39.06
48530;BME280;34927;37.302;-121.982;2022-08-21T03:34:06;100248.0;;;28.04;39.86
48530;BME280;34927;37.302;-121.982;2022-08-21T03:35:12;100253.0;;;28.19;39.75
48530;BME280;34927;37.302;-121.982;2022-08-21T03:36:16;100251.0;;;28.22;39.58
48530;BME280;34927;37.302;-121.982;2022-08-21T03:37:22;100256.0;;;28.09;40.07
48530;BME280;34927;37.302;-121.982;2022-08-21T03:38:28;100255.0;;;28.05;40.02
48530;BME280;34927;37.302;-121.982;2022-08-21T03:39:32;100256.0;;;28.04;40.04
48530;BME280;34927;37.302;-121.982;2022-08-21T03:40:36;100259.0;;;27.93;40.29
48530;BME280;34927;37.302;-121.982;2022-08-21T03:41:41;100260.0;;;27.90;40.42
48530;BME280;34927;37.302;-121.982;2022-08-21T03:42:46;100264.0;;;27.91;40.48
48530;BME280;34927;37.302;-121.982;2022-08-21T03:43:52;100264.0;;;27.89;40.14
48530;BME280;34927;37.302;-121.982;2022-08-21T03:44:56;100269.0;;;27.75;40.17
48530;BME280;34927;37.302;-121.982;2022-08-21T03:46:04;100267.0;;;27.70;40.32
48530;BME280;34927;37.302;-121.982;2022-08-21T03:47:07;100267.0;;;27.83;40.07
48530;BME280;34927;37.302;-121.982;2022-08-21T03:48:11;100269.0;;;27.70;40.25
48530;BME280;34927;37.302;-121.982;2022-08-21T03:49:16;100271.0;;;27.70;40.13
48530;BME280;34927;37.302;-121.982;2022-08-21T03:50:22;100273.0;;;27.71;40.24
48530;BME280;34927;37.302;-121.982;2022-08-21T03:51:27;100275.0;;;27.65;40.31
48530;BME280;34927;37.302;-121.982;2022-08-21T03:52:31;100279.0;;;27.50;40.58
48530;BME280;34927;37.302;-121.982;2022-08-21T03:53:37;100278.0;;;27.60;40.32
48530;BME280;34927;37.302;-121.982;2022-08-21T03:54:42;100283.0;;;27.66;40.14
48530;BME280;34927;37.302;-121.982;2022-08-21T03:55:48;100286.0;;;27.63;40.20
48530;BME280;34927;37.302;-121.982;2022-08-21T03:56:51;100289.0;;;27.55;40.64
48530;BME280;34927;37.302;-121.982;2022-08-21T03:57:56;100291.0;;;27.52;40.79
48530;BME280;34927;37.302;-121.982;2022-08-21T03:59:01;100295.0;;;27.43;40.96
48530;BME280;34927;37.302;-121.982;2022-08-21T04:00:09;100295.0;;;27.30;41.10
48530;BME280;34927;37.302;-121.982;2022-08-21T04:01:11;100297.0;;;27.36;40.99
48530;BME280;34927;37.302;-121.982;2022-08-21T04:02:19;100300.0;;;27.33;41.13
48530;BME280;34927;37.302;-121.982;2022-08-21T04:03:27;100301.0;;;27.25;41.36
48530;BME280;34927;37.302;-121.982;2022-08-21T04:04:32;100305.0;;;27.49;40.84
48530;BME280;34927;37.302;-121.982;2022-08-21T04:05:36;100309.0;;;27.33;40.99
48530;BME280;34927;37.302;-121.982;2022-08-21T04:06:42;100314.0;;;27.07;41.47
48530;BME280;34927;37.302;-121.982;2022-08-21T04:07:46;100315.0;;;27.18;41.26
48530;BME280;34927;37.302;-121.982;2022-08-21T04:08:51;100315.0;;;27.08;41.34
48530;BME280;34927;37.302;-121.982;2022-08-21T04:09:57;100316.0;;;27.17;41.10
48530;BME280;34927;37.302;-121.982;2022-08-21T04:11:02;100320.0;;;27.22;40.93
48530;BME280;34927;37.302;-121.982;2022-08-21T04:12:07;100321.0;;;27.16;40.90
48530;BME280;34927;37.302;-121.982;2022-08-21T04:13:11;100320.0;;;27.17;40.82
48530;BME280;34927;37.302;-121.982;2022-08-21T04:14:17;100319.0;;;27.11;40.83
48530;BME280;34927;37.302;-121.982;2022-08-21T04:15:23;100320.0;;;27.06;40.82
48530;BME280;34927;37.302;-121.982;2022-08-21T04:16:26;100323.0;;;27.02;40.90
48530;BME280;34927;37.302;-121.982;2022-08-21T04:17:31;100325.0;;;27.01;40.99
48530;BME280;34927;37.302;-121.982;2022-08-21T04:18:37;100327.0;;;26.93;41.20
48530;BME280;34927;37.302;-121.982;2022-08-21T04:19:41;100326.0;;;26.70;41.63
48530;BME280;34927;37.302;-121.982;2022-08-21T04:20:49;100326.0;;;26.67;41.73
48530;BME280;34927;37.302;-121.982;2022-08-21T04:21:51;100324.0;;;26.80;41.60
48530;BME280;34927;37.302;-121.982;2022-08-21T04:22:56;100329.0;;;26.63;41.85
48530;BME280;34927;37.302;-121.982;2022-08-21T04:24:01;100329.0;;;26.67;41.90
48530;BME280;34927;37.302;-121.982;2022-08-21T04:25:07;100326.0;;;26.56;42.21
48530;BME280;34927;37.302;-121.982;2022-08-21T04:26:12;100327.0;;;26.63;42.16
48530;BME280;34927;37.302;-121.982;2022-08-21T04:27:16;100331.0;;;26.62;42.24
48530;BME280;34927;37.302;-121.982;2022-08-21T04:28:23;100328.0;;;26.59;42.36
48530;BME280;34927;37.302;-121.982;2022-08-21T04:29:26;100329.0;;;26.56;42.42
48530;BME280;34927;37.302;-121.982;2022-08-21T04:30:32;100329.0;;;26.53;42.52
48530;BME280;34927;37.302;-121.982;2022-08-21T04:31:37;100330.0;;;26.48;42.67
48530;BME280;34927;37.302;-121.982;2022-08-21T04:32:43;100333.0;;;26.52;42.68
48530;BME280;34927;37.302;-121.982;2022-08-21T04:33:47;100336.0;;;26.63;42.44
48530;BME280;34927;37.302;-121.982;2022-08-21T04:34:58;100336.0;;;26.42;42.84
48530;BME280;34927;37.302;-121.982;2022-08-21T04:36:02;100339.0;;;26.35;43.11
48530;BME280;34927;37.302;-121.982;2022-08-21T04:37:06;100342.0;;;26.46;42.84
48530;BME280;34927;37.302;-121.982;2022-08-21T04:38:11;100343.0;;;26.40;43.08
48530;BME280;34927;37.302;-121.982;2022-08-21T04:39:16;100345.0;;;26.31;43.32
48530;BME280;34927;37.302;-121.982;2022-08-21T04:40:23;100347.0;;;26.26;43.48
48530;BME280;34927;37.302;-121.982;2022-08-21T04:41:27;100350.0;;;26.26;43.59
48530;BME280;34927;37.302;-121.982;2022-08-21T04:42:32;100352.0;;;26.37;43.42
48530;BME280;34927;37.302;-121.982;2022-08-21T04:43:37;100349.0;;;26.42;43.65
48530;BME280;34927;37.302;-121.982;2022-08-21T04:44:41;100355.0;;;26.32;43.80
48530;BME280;34927;37.302;-121.982;2022-08-21T04:45:48;100357.0;;;26.32;43.94
48530;BME280;34927;37.302;-121.982;2022-08-21T04:46:51;100358.0;;;26.33;43.88
48530;BME280;34927;37.302;-121.982;2022-08-21T04:47:59;100360.0;;;26.25;44.06
48530;BME280;34927;37.302;-121.982;2022-08-21T04:49:01;100364.0;;;26.26;44.06
48530;BME280;34927;37.302;-121.982;2022-08-21T04:50:08;100366.0;;;26.18;44.25
48530;BME280;34927;37.302;-121.982;2022-08-21T04:51:15;100367.0;;;26.11;44.52
48530;BME280;34927;37.302;-121.982;2022-08-21T04:52:23;100365.0;;;26.19;44.25
48530;BME280;34927;37.302;-121.982;2022-08-21T04:53:35;100362.0;;;26.13;44.48
48530;BME280;34927;37.302;-121.982;2022-08-21T04:54:43;100369.0;;;26.09;44.68
48530;BME280;34927;37.302;-121.982;2022-08-21T04:55:47;100372.0;;;26.10;44.65
48530;BME280;34927;37.302;-121.982;2022-08-21T04:56:54;100375.0;;;26.15;44.34
48530;BME280;34927;37.302;-121.982;2022-08-21T04:58:01;100375.0;;;26.10;44.45
48530;BME280;34927;37.302;-121.982;2022-08-21T04:59:12;100375.0;;;26.12;44.60
48530;BME280;34927;37.302;-121.982;2022-08-21T05:00:17;100374.0;;;26.00;44.83
48530;BME280;34927;37.302;-121.982;2022-08-21T05:01:23;100374.0;;;26.07;44.71
48530;BME280;34927;37.302;-121.982;2022-08-21T05:02:27;100377.0;;;25.97;44.89
48530;BME280;34927;37.302;-121.982;2022-08-21T05:03:33;100379.0;;;25.86;45.14
48530;BME280;34927;37.302;-121.982;2022-08-21T05:04:39;100379.0;;;25.78;45.45
48530;BME280;34927;37.302;-121.982;2022-08-21T05:05:47;100379.0;;;25.87;45.24
48530;BME280;34927;37.302;-121.982;2022-08-21T05:06:53;100380.0;;;25.95;45.14
48530;BME280;34927;37.302;-121.982;2022-08-21T05:07:58;100381.0;;;26.01;44.98
48530;BME280;34927;37.302;-121.982;2022-08-21T05:09:02;100382.0;;;25.99;45.15
48530;BME280;34927;37.302;-121.982;2022-08-21T05:10:07;100384.0;;;25.92;45.27
48530;BME280;34927;37.302;-121.982;2022-08-21T05:11:12;100383.0;;;25.95;45.16
48530;BME280;34927;37.302;-121.982;2022-08-21T05:12:16;100386.0;;;25.95;45.05
48530;BME280;34927;37.302;-121.982;2022-08-21T05:13:22;100386.0;;;25.97;45.24
48530;BME280;34927;37.302;-121.982;2022-08-21T05:14:26;100386.0;;;26.02;45.07
48530;BME280;34927;37.302;-121.982;2022-08-21T05:15:32;100389.0;;;25.78;45.38
48530;BME280;34927;37.302;-121.982;2022-08-21T05:16:37;100385.0;;;25.76;45.62
48530;BME280;34927;37.302;-121.982;2022-08-21T05:17:41;100385.0;;;25.66;45.86
48530;BME280;34927;37.302;-121.982;2022-08-21T05:18:47;100386.0;;;25.79;45.61
48530;BME280;34927;37.302;-121.982;2022-08-21T05:19:51;100385.0;;;25.75;45.57
48530;BME280;34927;37.302;-121.982;2022-08-21T05:20:57;100385.0;;;25.67;45.64
48530;BME280;34927;37.302;-121.982;2022-08-21T05:22:02;100386.0;;;25.59;45.71
48530;BME280;34927;37.302;-121.982;2022-08-21T05:23:08;100387.0;;;25.65;45.59
48530;BME280;34927;37.302;-121.982;2022-08-21T05:24:12;100387.0;;;25.56;45.74
48530;BME280;34927;37.302;-121.982;2022-08-21T05:25:16;100389.0;;;25.37;46.20
48530;BME280;34927;37.302;-121.982;2022-08-21T05:26:21;100392.0;;;25.41;46.14
48530;BME280;34927;37.302;-121.982;2022-08-21T05:27:27;100395.0;;;25.45;46.08
48530;BME280;34927;37.302;-121.982;2022-08-21T05:28:31;100396.0;;;25.46;46.02
48530;BME280;34927;37.302;-121.982;2022-08-21T05:29:36;100396.0;;;25.52;45.81
48530;BME280;34927;37.302;-121.982;2022-08-21T05:30:41;100398.0;;;25.51;45.89
48530;BME280;34927;37.302;-121.982;2022-08-21T05:31:47;100397.0;;;25.55;45.74
48530;BME280;34927;37.302;-121.982;2022-08-21T05:32:56;100399.0;;;25.54;45.79